Time;durP1;ratioP1;P1;durP2;ratioP2;P2;SDS_P1;SDS_P2;PMS_P1;PMS_P2;Temp;Humidity;BMP_temperature;BMP_pressure;BME280_temperature;BME280_humidity;BME280_pressure;Samples;Min_cycle;Max_cycle;Signal;HPM_P1;HPM_P2
2021/01/10 00:01:16;;;;;;;40.27;16.07;;;;;;;;;;5095630;28;20073;-60
2021/01/10 00:03:41;;;;;;;26.27;13.40;;;;;;;;;;5096195;28;20027;-62
2021/01/10 00:06:07;;;;;;;32.90;15.37;;;;;;;;;;5096117;28;20031;-61
2021/01/10 00:08:33;;;;;;;30.83;13.63;;;;;;;;;;5095599;28;20012;-62
2021/01/10 00:10:58;;;;;;;25.87;13.97;;;;;;;;;;5078212;28;20027;-61
2021/01/10 00:13:23;;;;;;;32.83;15.43;;;;;;;;;;5096567;28;20035;-61
2021/01/10 00:15:49;;;;;;;32.63;15.80;;;;;;;;;;5096868;28;20352;-62
2021/01/10 00:18:14;;;;;;;27.63;14.83;;;;;;;;;;5096696;28;20043;-61
2021/01/10 00:20:39;;;;;;;34.83;18.13;;;;;;;;;;5093698;28;20024;-61
2021/01/10 00:23:05;;;;;;;36.97;17.10;;;;;;;;;;5097137;28;20428;-61
2021/01/10 00:25:30;;;;;;;39.47;18.63;;;;;;;;;;5096543;28;20061;-61
2021/01/10 00:27:55;;;;;;;45.27;19.30;;;;;;;;;;5097134;28;20456;-61
2021/01/10 00:30:21;;;;;;;39.93;19.20;;;;;;;;;;5095374;28;20024;-58
2021/01/10 00:32:48;;;;;;;32.17;17.52;;;;;;;;;;5092942;28;20098;-61
2021/01/10 00:35:13;;;;;;;38.10;15.73;;;;;;;;;;5092746;28;20068;-60
2021/01/10 00:37:39;;;;;;;31.27;16.00;;;;;;;;;;5074032;28;20051;-60
2021/01/10 00:40:04;;;;;;;37.87;16.97;;;;;;;;;;5092268;28;20061;-61
2021/01/10 00:42:30;;;;;;;32.15;16.15;;;;;;;;;;5092069;28;20024;-60
2021/01/10 00:44:55;;;;;;;32.93;15.50;;;;;;;;;;5092441;28;20063;-62
2021/01/10 00:47:22;;;;;;;34.23;15.27;;;;;;;;;;5073960;28;20035;-60
2021/01/10 00:49:48;;;;;;;33.05;14.15;;;;;;;;;;5092607;28;20016;-61
2021/01/10 00:52:14;;;;;;;24.45;12.95;;;;;;;;;;5074177;28;20081;-62
2021/01/10 00:54:42;;;;;;;36.13;16.17;;;;;;;;;;5093325;28;20032;-61
2021/01/10 00:57:09;;;;;;;30.83;14.13;;;;;;;;;;5075070;28;20059;-62
2021/01/10 00:59:34;;;;;;;32.87;14.77;;;;;;;;;;5074904;28;20055;-62
2021/01/10 01:02:01;;;;;;;30.02;14.15;;;;;;;;;;5075336;28;20505;-62
2021/01/10 01:04:27;;;;;;;24.23;13.10;;;;;;;;;;5093146;28;20098;-62
2021/01/10 01:06:52;;;;;;;36.93;14.30;;;;;;;;;;5075428;28;20036;-62
2021/01/10 01:09:19;;;;;;;27.55;14.27;;;;;;;;;;5093576;28;20039;-61
2021/01/10 01:11:44;;;;;;;26.20;12.17;;;;;;;;;;5092855;28;20024;-62
2021/01/10 01:14:10;;;;;;;21.97;12.17;;;;;;;;;;5075306;28;20747;-62
2021/01/10 01:16:38;;;;;;;27.70;12.63;;;;;;;;;;5092761;28;20050;-61
2021/01/10 01:19:04;;;;;;;27.98;12.05;;;;;;;;;;5093249;28;20079;-61
2021/01/10 01:21:29;;;;;;;28.85;12.30;;;;;;;;;;5092740;28;20028;-61
2021/01/10 01:23:55;;;;;;;24.60;13.23;;;;;;;;;;5093072;28;20096;-62
2021/01/10 01:26:21;;;;;;;28.97;12.53;;;;;;;;;;5093446;28;20077;-61
2021/01/10 01:28:46;;;;;;;;;;;;;;;;;;5093676;28;20024;-61
2021/01/10 01:31:12;;;;;;;24.93;13.80;;;;;;;;;;5093418;28;19998;-61
2021/01/10 01:33:37;;;;;;;30.63;13.77;;;;;;;;;;5092546;28;20060;-61
2021/01/10 01:36:03;;;;;;;25.23;12.87;;;;;;;;;;5093173;28;20020;-61
2021/01/10 01:38:28;;;;;;;28.45;13.70;;;;;;;;;;5092142;28;20032;-61
2021/01/10 01:41:00;;;;;;;33.33;13.13;;;;;;;;;;5092984;28;20348;-62
2021/01/10 01:43:26;;;;;;;28.00;11.27;;;;;;;;;;5092116;28;20042;-62
2021/01/10 01:45:51;;;;;;;45.80;16.40;;;;;;;;;;5093046;28;20562;-61
2021/01/10 01:48:16;;;;;;;48.60;16.07;;;;;;;;;;5092516;28;20065;-62
2021/01/10 01:50:42;;;;;;;29.83;13.97;;;;;;;;;;5092193;28;20103;-61
2021/01/10 01:53:07;;;;;;;27.50;13.63;;;;;;;;;;5092792;28;20074;-62
2021/01/10 01:55:32;;;;;;;33.23;14.80;;;;;;;;;;5092064;28;20039;-62
2021/01/10 01:57:58;;;;;;;37.53;14.67;;;;;;;;;;5092755;28;20059;-62
2021/01/10 02:00:23;;;;;;;32.43;15.67;;;;;;;;;;5092667;28;20115;-62
2021/01/10 02:02:49;;;;;;;40.40;13.87;;;;;;;;;;5073909;28;20024;-62
2021/01/10 02:05:16;;;;;;;32.90;14.00;;;;;;;;;;5092278;28;20020;-61
2021/01/10 02:08:05;;;;;;;31.55;14.15;;;;;;;;;;5091981;28;20059;-61
2021/01/10 02:10:33;;;;;;;34.13;13.60;;;;;;;;;;5073353;28;20027;-62
2021/01/10 02:13:02;;;;;;;35.83;14.10;;;;;;;;;;5092477;28;20100;-62
2021/01/10 02:15:30;;;;;;;34.70;14.90;;;;;;;;;;5091349;28;20039;-61
2021/01/10 02:17:56;;;;;;;35.17;14.65;;;;;;;;;;5092008;28;20032;-62
2021/01/10 02:20:25;;;;;;;36.60;14.10;;;;;;;;;;5073845;28;20040;-62
2021/01/10 02:22:52;;;;;;;29.02;14.07;;;;;;;;;;5073313;28;20344;-62
2021/01/10 02:25:17;;;;;;;32.33;15.07;;;;;;;;;;5091756;28;20486;-62
2021/01/10 02:27:43;;;;;;;28.00;15.20;;;;;;;;;;5091463;28;20055;-62
2021/01/10 02:30:09;;;;;;;28.15;14.73;;;;;;;;;;5092006;28;20024;-61
2021/01/10 02:32:35;;;;;;;;;;;;;;;;;;5091641;28;20027;-61
2021/01/10 02:35:00;;;;;;;32.77;13.40;;;;;;;;;;5091962;28;20250;-63
2021/01/10 02:37:44;;;;;;;46.55;17.65;;;;;;;;;;5091597;28;20089;-62
2021/01/10 02:40:23;;;;;;;41.25;14.50;;;;;;;;;;5091889;28;20027;-62
2021/01/10 02:43:08;;;;;;;37.58;14.95;;;;;;;;;;5072761;28;20028;-61
2021/01/10 02:45:34;;;;;;;34.00;14.55;;;;;;;;;;5090931;28;20020;-61
2021/01/10 02:47:59;;;;;;;29.67;15.35;;;;;;;;;;5073611;28;20015;-63
2021/01/10 02:50:26;;;;;;;34.13;13.20;;;;;;;;;;5091830;28;20035;-62
2021/01/10 02:52:51;;;;;;;;;;;;;;;;;;5090569;28;20030;-60
2021/01/10 02:55:17;;;;;;;27.07;13.37;;;;;;;;;;5078786;28;19904;-62
2021/01/10 02:57:48;;;;;;;22.20;9.53;;;;;;;;;;5052805;28;20099;-62
2021/01/10 03:00:14;;;;;;;28.70;12.88;;;;;;;;;;5053596;28;20504;-62
2021/01/10 03:02:40;;;;;;;26.08;12.85;;;;;;;;;;5070894;28;20051;-62
2021/01/10 03:05:06;;;;;;;29.67;13.38;;;;;;;;;;5070059;28;20155;-61
2021/01/10 03:07:35;;;;;;;33.25;13.70;;;;;;;;;;5083223;28;20034;-59
2021/01/10 03:10:00;;;;;;;31.67;12.48;;;;;;;;;;5091461;28;20031;-61
2021/01/10 03:12:26;;;;;;;34.87;12.93;;;;;;;;;;5091516;28;20024;-62
2021/01/10 03:14:51;;;;;;;27.57;12.43;;;;;;;;;;5090792;28;20353;-62
2021/01/10 03:17:21;;;;;;;29.17;12.18;;;;;;;;;;5091008;28;20352;-62
2021/01/10 03:19:46;;;;;;;25.95;11.60;;;;;;;;;;5090780;28;20135;-62
2021/01/10 03:22:12;;;;;;;26.93;12.13;;;;;;;;;;5091201;28;20494;-61
2021/01/10 03:24:37;;;;;;;30.30;13.63;;;;;;;;;;5090700;28;20460;-61
2021/01/10 03:27:02;;;;;;;26.80;13.47;;;;;;;;;;5091049;28;20028;-61
2021/01/10 03:29:28;;;;;;;26.90;12.37;;;;;;;;;;5091382;28;20035;-62
2021/01/10 03:31:53;;;;;;;17.60;9.67;;;;;;;;;;5072568;28;20466;-62
2021/01/10 03:34:18;;;;;;;24.90;11.57;;;;;;;;;;5091370;28;20054;-61
2021/01/10 03:36:44;;;;;;;24.67;12.80;;;;;;;;;;5076142;28;20047;-61
2021/01/10 03:39:09;;;;;;;36.53;14.50;;;;;;;;;;5071148;28;20074;-62
2021/01/10 03:41:34;;;;;;;21.97;12.97;;;;;;;;;;5052473;28;20448;-61
2021/01/10 03:44:00;;;;;;;29.17;13.33;;;;;;;;;;5053095;28;20024;-61
2021/01/10 03:46:25;;;;;;;28.93;15.13;;;;;;;;;;5070790;28;20340;-62
2021/01/10 03:48:50;;;;;;;27.90;14.07;;;;;;;;;;5070315;28;20066;-60
2021/01/10 03:51:16;;;;;;;27.03;13.27;;;;;;;;;;5082989;28;20016;-61
2021/01/10 03:53:41;;;;;;;20.97;10.17;;;;;;;;;;5070835;28;20452;-60
2021/01/10 03:56:06;;;;;;;32.10;13.07;;;;;;;;;;5070744;28;20368;-61
2021/01/10 03:58:32;;;;;;;23.67;12.00;;;;;;;;;;5070509;28;20486;-61
2021/01/10 04:00:57;;;;;;;25.63;11.87;;;;;;;;;;5069846;28;20531;-62
2021/01/10 04:03:22;;;;;;;26.23;12.80;;;;;;;;;;5070787;28;20025;-62
2021/01/10 04:05:48;;;;;;;26.53;12.20;;;;;;;;;;5085805;28;20021;-62
2021/01/10 04:08:13;;;;;;;30.90;13.53;;;;;;;;;;5072702;28;20029;-62
2021/01/10 04:10:38;;;;;;;29.43;11.47;;;;;;;;;;5069935;28;20115;-61
2021/01/10 04:13:04;;;;;;;28.93;13.83;;;;;;;;;;5094484;28;20043;-62
2021/01/10 04:15:29;;;;;;;29.03;11.77;;;;;;;;;;5094426;28;20490;-62
2021/01/10 04:17:54;;;;;;;27.77;13.50;;;;;;;;;;5093915;28;20039;-62
2021/01/10 04:20:20;;;;;;;23.85;10.98;;;;;;;;;;5094670;28;20079;-62
2021/01/10 04:22:46;;;;;;;25.83;11.13;;;;;;;;;;5094074;28;20036;-60
2021/01/10 04:25:11;;;;;;;35.03;10.70;;;;;;;;;;5094545;28;20525;-61
2021/01/10 04:27:36;;;;;;;24.50;11.03;;;;;;;;;;5094680;28;20081;-61
2021/01/10 04:30:03;;;;;;;24.20;10.43;;;;;;;;;;5093639;28;20492;-63
2021/01/10 04:32:28;;;;;;;23.77;9.82;;;;;;;;;;5094447;28;20115;-62
2021/01/10 04:34:53;;;;;;;22.33;10.60;;;;;;;;;;5093415;28;20028;-61
2021/01/10 04:37:19;;;;;;;32.20;11.90;;;;;;;;;;5093993;28;20111;-61
2021/01/10 04:39:44;;;;;;;27.37;10.90;;;;;;;;;;5091872;28;20454;-61
2021/01/10 04:42:10;;;;;;;26.73;11.97;;;;;;;;;;5073871;28;20346;-62
2021/01/10 04:44:36;;;;;;;26.83;11.18;;;;;;;;;;5073475;28;20040;-62
2021/01/10 04:47:01;;;;;;;28.27;11.80;;;;;;;;;;5073323;28;20102;-61
2021/01/10 04:49:27;;;;;;;31.37;12.37;;;;;;;;;;5073973;28;20100;-61
2021/01/10 04:51:52;;;;;;;26.70;11.73;;;;;;;;;;5084245;28;20024;-62
2021/01/10 04:54:20;;;;;;;23.85;10.82;;;;;;;;;;5094003;28;20024;-61
2021/01/10 04:56:47;;;;;;;25.15;12.13;;;;;;;;;;5092798;28;20035;-62
2021/01/10 04:59:16;;;;;;;24.77;12.05;;;;;;;;;;5094202;28;20064;-61
2021/01/10 05:01:43;;;;;;;25.15;11.82;;;;;;;;;;5093165;28;20140;-57
2021/01/10 05:04:08;;;;;;;26.23;11.77;;;;;;;;;;5093765;28;20027;-61
2021/01/10 05:06:37;;;;;;;27.20;11.77;;;;;;;;;;5093880;28;20023;-62
2021/01/10 05:09:06;;;;;;;21.83;11.80;;;;;;;;;;5092807;28;20480;-62
2021/01/10 05:11:31;;;;;;;27.05;12.88;;;;;;;;;;5093871;28;20017;-62
2021/01/10 05:13:56;;;;;;;22.87;12.73;;;;;;;;;;5091002;28;20046;-62
2021/01/10 05:16:22;;;;;;;26.73;12.23;;;;;;;;;;5093273;28;20184;-62
2021/01/10 05:18:51;;;;;;;26.57;12.90;;;;;;;;;;5092552;28;20119;-62
2021/01/10 05:21:19;;;;;;;28.52;12.82;;;;;;;;;;5075346;28;20028;-63
2021/01/10 05:23:45;;;;;;;26.95;12.77;;;;;;;;;;5093451;28;20028;-62
2021/01/10 05:26:10;;;;;;;24.02;10.30;;;;;;;;;;5093602;28;20031;-63
2021/01/10 05:28:35;;;;;;;22.77;12.47;;;;;;;;;;5093615;28;20367;-62
2021/01/10 05:31:02;;;;;;;35.67;12.80;;;;;;;;;;5074886;28;20128;-63
2021/01/10 05:33:27;;;;;;;25.80;12.88;;;;;;;;;;5093956;28;20027;-63
2021/01/10 05:35:54;;;;;;;24.80;12.67;;;;;;;;;;5092799;28;20028;-63
2021/01/10 05:38:26;;;;;;;24.05;12.02;;;;;;;;;;5093148;28;20042;-62
2021/01/10 05:40:52;;;;;;;24.77;13.25;;;;;;;;;;5092279;28;20028;-61
2021/01/10 05:43:18;;;;;;;29.38;12.63;;;;;;;;;;5093034;28;20043;-62
2021/01/10 05:45:43;;;;;;;23.50;12.37;;;;;;;;;;5093398;28;20407;-61
2021/01/10 05:48:09;;;;;;;24.70;11.83;;;;;;;;;;5092238;28;20444;-62
2021/01/10 05:50:39;;;;;;;29.73;12.77;;;;;;;;;;5093137;28;20052;-62
2021/01/10 05:53:12;;;;;;;28.52;12.45;;;;;;;;;;5092451;28;20909;-61
2021/01/10 05:55:38;;;;;;;22.25;12.50;;;;;;;;;;5093083;28;20062;-62
2021/01/10 05:58:15;;;;;;;28.60;12.87;;;;;;;;;;5073865;28;20052;-61
2021/01/10 06:00:42;;;;;;;34.30;13.38;;;;;;;;;;5074679;28;20094;-61
2021/01/10 06:03:09;;;;;;;30.02;13.65;;;;;;;;;;5092251;28;20048;-61
2021/01/10 06:05:35;;;;;;;25.83;13.52;;;;;;;;;;5074337;28;20096;-62
2021/01/10 06:08:00;;;;;;;22.27;12.27;;;;;;;;;;5092112;28;20102;-61
2021/01/10 06:10:26;;;;;;;23.80;12.53;;;;;;;;;;5092589;28;20466;-61
2021/01/10 06:13:02;;;;;;;25.92;12.98;;;;;;;;;;5091977;28;20043;-60
2021/01/10 06:15:30;;;;;;;23.30;12.63;;;;;;;;;;5074295;28;20495;-61
2021/01/10 06:17:59;;;;;;;25.58;14.25;;;;;;;;;;5073482;28;20115;-61
2021/01/10 06:20:24;;;;;;;23.27;12.95;;;;;;;;;;5091978;28;20048;-61
2021/01/10 06:22:51;;;;;;;28.60;13.53;;;;;;;;;;5092274;28;20085;-59
2021/01/10 06:25:20;;;;;;;22.15;11.98;;;;;;;;;;5092099;28;20056;-61
2021/01/10 06:27:47;;;;;;;31.75;14.20;;;;;;;;;;5092329;28;20094;-60
2021/01/10 06:30:15;;;;;;;38.08;13.88;;;;;;;;;;5090590;28;20054;-62
2021/01/10 06:32:44;;;;;;;21.90;13.05;;;;;;;;;;5092051;28;20028;-61
2021/01/10 06:35:10;;;;;;;50.28;15.75;;;;;;;;;;5091437;28;20452;-62
2021/01/10 06:37:37;;;;;;;28.23;16.10;;;;;;;;;;5091670;28;20034;-61
2021/01/10 06:40:02;;;;;;;28.55;15.35;;;;;;;;;;5073487;28;20028;-62
2021/01/10 06:42:29;;;;;;;26.70;13.65;;;;;;;;;;5073918;28;20035;-61
2021/01/10 06:44:54;;;;;;;;;;;;;;;;;;5073621;28;20115;-60
2021/01/10 06:47:21;;;;;;;23.30;13.77;;;;;;;;;;5091851;28;19938;-62
2021/01/10 06:49:46;;;;;;;28.05;13.48;;;;;;;;;;5092079;28;20012;-62
2021/01/10 06:52:12;;;;;;;24.20;14.10;;;;;;;;;;5091427;28;20028;-62
2021/01/10 06:54:42;;;;;;;25.30;14.40;;;;;;;;;;5074030;28;20016;-61
2021/01/10 06:57:07;;;;;;;24.00;12.77;;;;;;;;;;5090960;28;20055;-61
2021/01/10 06:59:52;;;;;;;24.35;13.77;;;;;;;;;;5091885;28;20035;-61
2021/01/10 07:02:18;;;;;;;19.63;11.85;;;;;;;;;;5091551;28;20096;-62
2021/01/10 07:04:54;;;;;;;22.53;11.70;;;;;;;;;;5091679;28;20111;-61
2021/01/10 07:07:52;;;;;;;24.20;13.73;;;;;;;;;;5092000;28;20028;-62
2021/01/10 07:10:17;;;;;;;;;;;;;;;;;;5030697;28;20040;-62
2021/01/10 07:12:43;;;;;;;27.63;12.73;;;;;;;;;;5091603;28;19911;-62
2021/01/10 07:15:27;;;;;;;27.63;13.90;;;;;;;;;;5072990;28;20051;-61
2021/01/10 07:18:01;;;;;;;28.05;14.02;;;;;;;;;;5073576;28;20056;-62
2021/01/10 07:20:37;;;;;;;24.23;13.32;;;;;;;;;;5091971;28;20051;-61
2021/01/10 07:23:21;;;;;;;24.33;13.98;;;;;;;;;;5090839;28;20127;-61
2021/01/10 07:25:46;;;;;;;25.25;13.32;;;;;;;;;;5073637;28;20020;-61
2021/01/10 07:28:30;;;;;;;22.57;12.87;;;;;;;;;;5091084;28;20043;-62
2021/01/10 07:31:28;;;;;;;23.42;13.32;;;;;;;;;;5072726;28;20028;-64
2021/01/10 07:34:09;;;;;;;30.52;12.35;;;;;;;;;;5046473;28;20036;-62
2021/01/10 07:36:42;;;;;;;17.73;11.93;;;;;;;;;;5091408;28;20048;-61
2021/01/10 07:39:07;;;;;;;20.40;11.63;;;;;;;;;;5090854;28;20024;-61
2021/01/10 07:41:32;;;;;;;22.57;11.03;;;;;;;;;;5074206;28;20016;-61
2021/01/10 07:43:58;;;;;;;27.67;12.63;;;;;;;;;;5076662;28;20055;-62
2021/01/10 07:46:43;;;;;;;26.23;11.80;;;;;;;;;;5095417;28;20031;-61
2021/01/10 07:49:09;;;;;;;20.88;11.13;;;;;;;;;;5094672;28;20016;-61
2021/01/10 07:51:44;;;;;;;21.37;11.90;;;;;;;;;;5095455;28;20371;-63
2021/01/10 07:54:09;;;;;;;26.25;11.93;;;;;;;;;;5094799;28;20516;-61
2021/01/10 07:56:34;;;;;;;25.47;12.17;;;;;;;;;;5077127;28;20035;-61
2021/01/10 07:59:12;;;;;;;23.07;12.37;;;;;;;;;;5093950;28;20416;-60
2021/01/10 08:01:47;;;;;;;19.48;11.27;;;;;;;;;;5091961;28;20020;-61
2021/01/10 08:04:24;;;;;;;18.50;10.85;;;;;;;;;;5094096;28;20051;-60
2021/01/10 08:06:56;;;;;;;16.95;10.13;;;;;;;;;;5094569;28;20024;-62
2021/01/10 08:09:22;;;;;;;25.33;9.95;;;;;;;;;;5073855;28;20046;-61
2021/01/10 08:11:53;;;;;;;16.57;10.77;;;;;;;;;;5094547;28;20015;-61
2021/01/10 08:14:18;;;;;;;21.45;10.38;;;;;;;;;;5090937;28;20421;-60
2021/01/10 08:16:44;;;;;;;21.30;8.67;;;;;;;;;;5076112;28;20035;-61
2021/01/10 08:19:09;;;;;;;18.70;10.33;;;;;;;;;;5093520;28;20100;-62
2021/01/10 08:21:35;;;;;;;16.87;10.43;;;;;;;;;;5094157;28;20045;-61
2021/01/10 08:24:00;;;;;;;18.43;10.37;;;;;;;;;;5058755;28;20077;-60
2021/01/10 08:26:25;;;;;;;20.47;10.77;;;;;;;;;;5076113;28;20444;-61
2021/01/10 08:28:55;;;;;;;19.10;10.73;;;;;;;;;;5094343;28;20356;-61
2021/01/10 08:31:24;;;;;;;24.55;12.68;;;;;;;;;;5091265;28;20047;-60
2021/01/10 08:34:00;;;;;;;19.75;11.48;;;;;;;;;;5093954;28;20093;-61
2021/01/10 08:36:26;;;;;;;19.75;9.95;;;;;;;;;;5092334;28;20042;-61
2021/01/10 08:38:55;;;;;;;15.35;9.73;;;;;;;;;;5093740;28;20020;-63
2021/01/10 08:41:30;;;;;;;19.52;10.40;;;;;;;;;;5072816;28;20692;-60
2021/01/10 08:44:05;;;;;;;17.77;10.43;;;;;;;;;;5093638;28;20020;-61
2021/01/10 08:46:32;;;;;;;17.23;9.85;;;;;;;;;;5094057;28;20115;-61
2021/01/10 08:48:57;;;;;;;18.30;10.02;;;;;;;;;;5076385;28;20522;-60
2021/01/10 08:51:26;;;;;;;21.98;9.75;;;;;;;;;;5073130;28;20017;-62
2021/01/10 08:53:52;;;;;;;18.50;10.18;;;;;;;;;;5080594;28;20024;-61
2021/01/10 08:56:17;;;;;;;20.73;8.50;;;;;;;;;;5093047;28;20417;-61
2021/01/10 08:58:43;;;;;;;21.88;9.93;;;;;;;;;;5093828;28;20016;-61
2021/01/10 09:01:21;;;;;;;21.42;9.93;;;;;;;;;;5092999;28;20070;-60
2021/01/10 09:03:56;;;;;;;17.85;9.43;;;;;;;;;;5091094;28;20024;-61
2021/01/10 09:06:28;;;;;;;14.85;9.35;;;;;;;;;;5089143;28;20027;-60
2021/01/10 09:08:57;;;;;;;15.68;9.43;;;;;;;;;;5075510;28;20078;-61
2021/01/10 09:11:25;;;;;;;19.77;9.77;;;;;;;;;;5090386;28;20081;-61
2021/01/10 09:13:52;;;;;;;17.35;10.02;;;;;;;;;;5093074;28;20012;-62
2021/01/10 09:16:18;;;;;;;22.65;9.65;;;;;;;;;;5092517;28;20070;-61
2021/01/10 09:18:45;;;;;;;24.95;10.07;;;;;;;;;;5092144;28;20082;-61
2021/01/10 09:21:14;;;;;;;19.67;10.52;;;;;;;;;;5092546;28;20035;-62
2021/01/10 09:23:53;;;;;;;17.70;9.38;;;;;;;;;;5093375;28;20028;-61
2021/01/10 09:26:32;;;;;;;15.77;10.13;;;;;;;;;;5092551;28;20043;-61
2021/01/10 09:28:59;;;;;;;17.15;9.45;;;;;;;;;;5093360;28;20016;-62
2021/01/10 09:31:41;;;;;;;17.92;9.65;;;;;;;;;;5074342;28;20459;-62
2021/01/10 09:34:06;;;;;;;18.33;10.48;;;;;;;;;;5091355;28;20024;-58
2021/01/10 09:36:32;;;;;;;16.87;9.60;;;;;;;;;;5074566;28;20036;-61
2021/01/10 09:38:57;;;;;;;19.17;9.47;;;;;;;;;;5092763;28;20024;-61
2021/01/10 09:41:23;;;;;;;18.93;10.53;;;;;;;;;;5056239;28;20098;-61
2021/01/10 09:43:53;;;;;;;16.58;10.30;;;;;;;;;;5092950;28;20023;-60
2021/01/10 09:46:21;;;;;;;14.35;9.57;;;;;;;;;;5074027;28;20039;-62
2021/01/10 09:48:51;;;;;;;22.73;9.60;;;;;;;;;;5074402;28;20035;-61
2021/01/10 09:51:16;;;;;;;20.05;9.02;;;;;;;;;;5092109;28;20019;-60
2021/01/10 09:53:46;;;;;;;23.23;9.63;;;;;;;;;;5093087;28;20012;-62
2021/01/10 09:56:12;;;;;;;16.85;9.18;;;;;;;;;;5073505;28;20057;-60
2021/01/10 09:58:37;;;;;;;21.05;8.40;;;;;;;;;;5074625;28;20027;-62
2021/01/10 10:01:08;;;;;;;15.57;9.03;;;;;;;;;;5092721;28;20498;-62
2021/01/10 10:03:33;;;;;;;18.90;9.70;;;;;;;;;;5073678;28;20020;-61
2021/01/10 10:05:59;;;;;;;15.43;7.63;;;;;;;;;;5092514;28;20027;-62
2021/01/10 10:08:25;;;;;;;16.77;8.20;;;;;;;;;;5091873;28;20030;-61
2021/01/10 10:10:50;;;;;;;14.27;7.83;;;;;;;;;;5074178;28;20186;-62
2021/01/10 10:13:23;;;;;;;15.77;7.80;;;;;;;;;;5091849;28;20519;-61
2021/01/10 10:15:53;;;;;;;14.48;8.07;;;;;;;;;;5092249;28;20016;-63
2021/01/10 10:18:19;;;;;;;11.38;6.93;;;;;;;;;;5091342;28;20481;-63
2021/01/10 10:20:45;;;;;;;;;;;;;;;;;;5073532;28;20042;-62
2021/01/10 10:23:12;;;;;;;13.27;8.23;;;;;;;;;;5091269;28;20284;-61
2021/01/10 10:25:38;;;;;;;16.73;8.88;;;;;;;;;;5073955;28;20020;-61
2021/01/10 10:28:05;;;;;;;15.45;8.32;;;;;;;;;;5092025;28;20153;-62
2021/01/10 10:30:30;;;;;;;16.02;8.60;;;;;;;;;;5091432;28;20100;-62
2021/01/10 10:32:56;;;;;;;15.82;8.40;;;;;;;;;;5091464;28;20170;-61
2021/01/10 10:35:21;;;;;;;14.50;7.47;;;;;;;;;;5073081;28;20045;-62
2021/01/10 10:37:47;;;;;;;15.83;7.50;;;;;;;;;;5091902;28;20055;-61
2021/01/10 10:40:13;;;;;;;13.98;7.97;;;;;;;;;;5091393;28;20645;-60
2021/01/10 10:42:38;;;;;;;13.37;7.53;;;;;;;;;;5091918;28;20015;-62
2021/01/10 10:45:04;;;;;;;11.53;6.70;;;;;;;;;;5073657;28;20116;-61
2021/01/10 10:47:29;;;;;;;14.88;7.18;;;;;;;;;;5090626;28;20134;-61
2021/01/10 10:49:54;;;;;;;13.77;6.80;;;;;;;;;;5091538;28;20032;-61
2021/01/10 10:52:20;;;;;;;14.57;8.40;;;;;;;;;;5088299;28;20448;-60
2021/01/10 10:54:45;;;;;;;10.27;6.77;;;;;;;;;;5091679;28;20312;-61
2021/01/10 10:57:10;;;;;;;9.10;5.63;;;;;;;;;;5091418;28;20486;-61
2021/01/10 10:59:39;;;;;;;24.87;7.60;;;;;;;;;;5090439;28;20082;-60
2021/01/10 11:02:05;;;;;;;11.85;6.22;;;;;;;;;;5091309;28;20107;-63
2021/01/10 11:04:30;;;;;;;19.92;7.15;;;;;;;;;;5091011;28;20095;-62
2021/01/10 11:06:56;;;;;;;12.37;7.20;;;;;;;;;;5091225;28;20023;-62
2021/01/10 11:09:21;;;;;;;10.70;6.20;;;;;;;;;;5090943;28;20069;-62
2021/01/10 11:11:47;;;;;;;12.07;6.83;;;;;;;;;;5091441;28;20456;-62
2021/01/10 11:14:13;;;;;;;10.73;5.88;;;;;;;;;;5091270;28;20089;-63
2021/01/10 11:16:41;;;;;;;9.20;5.50;;;;;;;;;;5090059;28;20039;-62
2021/01/10 11:19:07;;;;;;;9.47;5.73;;;;;;;;;;5091103;28;20142;-63
2021/01/10 11:21:34;;;;;;;13.38;7.05;;;;;;;;;;5079784;28;20356;-63
2021/01/10 11:23:59;;;;;;;15.00;7.83;;;;;;;;;;5090170;28;20027;-63
2021/01/10 11:26:25;;;;;;;11.03;6.57;;;;;;;;;;5090312;28;20240;-63
2021/01/10 11:28:50;;;;;;;10.63;6.00;;;;;;;;;;5091417;28;20257;-63
2021/01/10 11:31:16;;;;;;;10.57;6.10;;;;;;;;;;5090062;28;20016;-63
2021/01/10 11:33:42;;;;;;;11.73;5.15;;;;;;;;;;5089701;28;20043;-62
2021/01/10 11:36:08;;;;;;;8.93;4.80;;;;;;;;;;5090492;28;20062;-63
2021/01/10 11:38:34;;;;;;;6.93;4.07;;;;;;;;;;5073727;28;20042;-55
2021/01/10 11:41:04;;;;;;;6.00;4.03;;;;;;;;;;5087703;28;20055;-63
2021/01/10 11:43:29;;;;;;;14.30;4.97;;;;;;;;;;5090478;28;20303;-63
2021/01/10 11:45:54;;;;;;;5.23;3.40;;;;;;;;;;5089768;28;20356;-62
2021/01/10 11:48:20;;;;;;;8.70;5.13;;;;;;;;;;5090191;28;20475;-63
2021/01/10 11:50:45;;;;;;;8.83;4.33;;;;;;;;;;5089709;28;20055;-64
2021/01/10 11:53:10;;;;;;;6.87;4.43;;;;;;;;;;5091211;28;20024;-63
2021/01/10 11:55:36;;;;;;;8.07;4.10;;;;;;;;;;5089198;28;20379;-63
2021/01/10 11:58:01;;;;;;;10.90;4.27;;;;;;;;;;5089644;28;20032;-64
2021/01/10 12:00:26;;;;;;;8.73;4.30;;;;;;;;;;5089672;28;20440;-62
2021/01/10 12:02:52;;;;;;;7.87;4.10;;;;;;;;;;5091020;28;20062;-62
2021/01/10 12:05:17;;;;;;;9.67;4.20;;;;;;;;;;5090055;28;20032;-61
2021/01/10 12:07:42;;;;;;;10.70;4.50;;;;;;;;;;5090866;28;20016;-62
2021/01/10 12:10:08;;;;;;;8.27;4.47;;;;;;;;;;5091313;28;20044;-63
2021/01/10 12:12:33;;;;;;;7.38;3.97;;;;;;;;;;5090224;28;20059;-62
2021/01/10 12:14:59;;;;;;;6.83;4.23;;;;;;;;;;5089221;28;20019;-62
2021/01/10 12:17:24;;;;;;;11.43;4.73;;;;;;;;;;5089918;28;20039;-62
2021/01/10 12:19:49;;;;;;;9.03;4.33;;;;;;;;;;5090115;28;20032;-62
2021/01/10 12:22:15;;;;;;;10.23;6.23;;;;;;;;;;5089346;28;20027;-55
2021/01/10 12:24:40;;;;;;;10.37;4.57;;;;;;;;;;5072494;28;20020;-63
2021/01/10 12:27:05;;;;;;;9.40;5.07;;;;;;;;;;5103651;28;20260;-63
2021/01/10 12:29:31;;;;;;;7.23;4.43;;;;;;;;;;5094656;28;20114;-62
2021/01/10 12:31:57;;;;;;;8.63;4.13;;;;;;;;;;5095845;28;20012;-62
2021/01/10 12:34:22;;;;;;;9.82;4.47;;;;;;;;;;5109035;28;20099;-61
2021/01/10 12:36:48;;;;;;;8.47;4.60;;;;;;;;;;5093642;28;20104;-62
2021/01/10 12:39:13;;;;;;;10.47;4.70;;;;;;;;;;5093639;28;20020;-62
2021/01/10 12:41:41;;;;;;;10.87;4.60;;;;;;;;;;5093046;28;20027;-60
2021/01/10 12:44:07;;;;;;;13.97;4.80;;;;;;;;;;5093856;28;20099;-62
2021/01/10 12:46:32;;;;;;;7.53;4.03;;;;;;;;;;5093243;28;20696;-62
2021/01/10 12:48:57;;;;;;;7.87;4.37;;;;;;;;;;5093627;28;20027;-61
2021/01/10 12:51:23;;;;;;;7.43;4.47;;;;;;;;;;5075196;28;20024;-60
2021/01/10 12:53:48;;;;;;;11.60;4.47;;;;;;;;;;5093889;28;20024;-60
2021/01/10 12:56:14;;;;;;;7.73;3.90;;;;;;;;;;5094081;28;20028;-61
2021/01/10 12:58:40;;;;;;;10.20;4.25;;;;;;;;;;5072370;28;20036;-62
2021/01/10 13:01:05;;;;;;;8.43;4.47;;;;;;;;;;5073603;28;20095;-60
2021/01/10 13:03:30;;;;;;;6.17;3.70;;;;;;;;;;5088229;28;20032;-63
2021/01/10 13:05:56;;;;;;;7.77;5.43;;;;;;;;;;5073626;28;20029;-62
2021/01/10 13:08:21;;;;;;;5.60;3.60;;;;;;;;;;5073035;28;20037;-60
2021/01/10 13:10:46;;;;;;;8.57;4.00;;;;;;;;;;5089119;28;20380;-62
2021/01/10 13:13:12;;;;;;;6.67;3.90;;;;;;;;;;5073374;28;20139;-62
2021/01/10 13:15:37;;;;;;;9.63;4.43;;;;;;;;;;5072596;28;20021;-64
2021/01/10 13:18:03;;;;;;;6.70;3.70;;;;;;;;;;5073212;28;20408;-63
2021/01/10 13:20:28;;;;;;;11.43;4.53;;;;;;;;;;5054983;28;20358;-63
2021/01/10 13:22:54;;;;;;;7.33;3.80;;;;;;;;;;5073103;28;20464;-62
2021/01/10 13:25:19;;;;;;;6.50;3.57;;;;;;;;;;5073492;28;20418;-63
2021/01/10 13:27:47;;;;;;;9.67;3.77;;;;;;;;;;5072511;28;20444;-61
2021/01/10 13:30:13;;;;;;;8.00;3.80;;;;;;;;;;5055220;28;20052;-63
2021/01/10 13:32:38;;;;;;;5.05;3.45;;;;;;;;;;5072233;28;20301;-61
2021/01/10 13:35:04;;;;;;;7.60;3.80;;;;;;;;;;5073034;28;20112;-62
2021/01/10 13:37:30;;;;;;;5.18;3.42;;;;;;;;;;5054282;28;20127;-61
2021/01/10 13:39:55;;;;;;;10.00;3.97;;;;;;;;;;5072469;28;20035;-62
2021/01/10 13:42:21;;;;;;;8.40;3.67;;;;;;;;;;5072719;28;20067;-62
2021/01/10 13:44:46;;;;;;;5.90;3.80;;;;;;;;;;5072562;28;20051;-62
2021/01/10 13:47:11;;;;;;;8.60;4.23;;;;;;;;;;5072874;28;20370;-62
2021/01/10 13:49:37;;;;;;;9.40;4.17;;;;;;;;;;5053992;28;20024;-63
2021/01/10 13:52:02;;;;;;;7.03;3.80;;;;;;;;;;5072823;28;20041;-62
2021/01/10 13:54:28;;;;;;;9.47;4.80;;;;;;;;;;5054342;28;20036;-61
2021/01/10 13:56:54;;;;;;;9.98;4.40;;;;;;;;;;5072488;28;20037;-63
2021/01/10 13:59:19;;;;;;;10.70;5.18;;;;;;;;;;5054728;28;20530;-63
2021/01/10 14:01:45;;;;;;;10.63;4.87;;;;;;;;;;5071819;28;20376;-62
2021/01/10 14:04:10;;;;;;;10.33;5.27;;;;;;;;;;5072659;28;20035;-63
2021/01/10 14:06:35;;;;;;;8.73;4.77;;;;;;;;;;5071394;28;20181;-63
2021/01/10 14:09:01;;;;;;;8.77;5.30;;;;;;;;;;5087913;28;20035;-61
2021/01/10 14:11:28;;;;;;;7.40;4.10;;;;;;;;;;5071661;28;20029;-61
2021/01/10 14:13:54;;;;;;;9.20;4.72;;;;;;;;;;5071870;28;20033;-61
2021/01/10 14:16:23;;;;;;;13.43;6.30;;;;;;;;;;5072077;28;20148;-60
2021/01/10 14:18:49;;;;;;;8.60;4.88;;;;;;;;;;5071036;28;20569;-60
2021/01/10 14:21:28;;;;;;;12.73;5.80;;;;;;;;;;5054061;28;20392;-61
2021/01/10 14:23:54;;;;;;;12.75;4.68;;;;;;;;;;5071956;28;20363;-60
2021/01/10 14:26:26;;;;;;;9.85;5.53;;;;;;;;;;5071853;28;20475;-64